sensor_id;sensor_type;location;lat;lon;timestamp;P1;durP1;ratioP1;P2;durP2;ratioP2
55815;SDS011;41744;52.404;16.942;2023-02-14T00:00:51;12.87;;;5.90;;
55815;SDS011;41744;52.404;16.942;2023-02-14T00:03:17;12.70;;;5.87;;
55815;SDS011;41744;52.404;16.942;2023-02-14T00:05:46;12.97;;;6.23;;
55815;SDS011;41744;52.404;16.942;2023-02-14T00:08:13;12.83;;;6.33;;
55815;SDS011;41744;52.404;16.942;2023-02-14T00:10:40;14.17;;;5.70;;
55815;SDS011;41744;52.404;16.942;2023-02-14T00:13:06;12.97;;;6.00;;
55815;SDS011;41744;52.404;16.942;2023-02-14T00:15:32;15.77;;;6.70;;
55815;SDS011;41744;52.404;16.942;2023-02-14T00:17:58;13.00;;;6.17;;
55815;SDS011;41744;52.404;16.942;2023-02-14T00:20:25;11.70;;;6.23;;
55815;SDS011;41744;52.404;16.942;2023-02-14T00:22:51;14.43;;;6.80;;
55815;SDS011;41744;52.404;16.942;2023-02-14T00:25:17;17.83;;;6.57;;
55815;SDS011;41744;52.404;16.942;2023-02-14T00:27:44;14.13;;;6.17;;
55815;SDS011;41744;52.404;16.942;2023-02-14T00:30:10;17.83;;;6.70;;
55815;SDS011;41744;52.404;16.942;2023-02-14T00:32:37;15.40;;;6.90;;
55815;SDS011;41744;52.404;16.942;2023-02-14T00:35:04;15.50;;;5.97;;
55815;SDS011;41744;52.404;16.942;2023-02-14T00:37:32;13.53;;;6.30;;
55815;SDS011;41744;52.404;16.942;2023-02-14T00:39:58;14.30;;;6.33;;
55815;SDS011;41744;52.404;16.942;2023-02-14T00:42:24;15.07;;;6.50;;
55815;SDS011;41744;52.404;16.942;2023-02-14T00:44:50;15.37;;;6.33;;
55815;SDS011;41744;52.404;16.942;2023-02-14T00:47:16;16.57;;;6.30;;
55815;SDS011;41744;52.404;16.942;2023-02-14T00:49:43;13.93;;;6.87;;
55815;SDS011;41744;52.404;16.942;2023-02-14T00:52:09;14.63;;;6.77;;
55815;SDS011;41744;52.404;16.942;2023-02-14T00:54:35;18.33;;;7.23;;
55815;SDS011;41744;52.404;16.942;2023-02-14T00:57:01;15.20;;;6.80;;
55815;SDS011;41744;52.404;16.942;2023-02-14T00:59:27;14.97;;;6.63;;
55815;SDS011;41744;52.404;16.942;2023-02-14T01:01:53;16.37;;;6.80;;
55815;SDS011;41744;52.404;16.942;2023-02-14T01:04:19;16.37;;;7.23;;
55815;SDS011;41744;52.404;16.942;2023-02-14T01:06:45;17.00;;;6.70;;
55815;SDS011;41744;52.404;16.942;2023-02-14T01:09:11;17.67;;;7.30;;
55815;SDS011;41744;52.404;16.942;2023-02-14T01:11:37;15.43;;;6.43;;
55815;SDS011;41744;52.404;16.942;2023-02-14T01:14:04;15.80;;;6.50;;
55815;SDS011;41744;52.404;16.942;2023-02-14T01:16:30;13.63;;;6.47;;
55815;SDS011;41744;52.404;16.942;2023-02-14T01:18:57;17.23;;;6.90;;
55815;SDS011;41744;52.404;16.942;2023-02-14T01:21:28;19.63;;;8.10;;
55815;SDS011;41744;52.404;16.942;2023-02-14T01:23:55;17.13;;;7.10;;
55815;SDS011;41744;52.404;16.942;2023-02-14T01:26:22;18.93;;;6.80;;
55815;SDS011;41744;52.404;16.942;2023-02-14T01:28:48;17.90;;;7.00;;
55815;SDS011;41744;52.404;16.942;2023-02-14T01:31:16;22.37;;;7.13;;
55815;SDS011;41744;52.404;16.942;2023-02-14T01:33:43;17.17;;;6.60;;
55815;SDS011;41744;52.404;16.942;2023-02-14T01:38:51;11.90;;;6.00;;
55815;SDS011;41744;52.404;16.942;2023-02-14T01:41:17;15.97;;;6.80;;
55815;SDS011;41744;52.404;16.942;2023-02-14T01:43:51;15.83;;;6.63;;
55815;SDS011;41744;52.404;16.942;2023-02-14T01:46:17;15.70;;;6.60;;
55815;SDS011;41744;52.404;16.942;2023-02-14T01:48:43;13.83;;;6.80;;
55815;SDS011;41744;52.404;16.942;2023-02-14T01:51:10;15.20;;;6.70;;
55815;SDS011;41744;52.404;16.942;2023-02-14T01:53:36;13.07;;;6.37;;
55815;SDS011;41744;52.404;16.942;2023-02-14T01:56:04;17.60;;;6.93;;
55815;SDS011;41744;52.404;16.942;2023-02-14T01:58:31;15.53;;;6.80;;
55815;SDS011;41744;52.404;16.942;2023-02-14T02:01:01;12.83;;;6.17;;
55815;SDS011;41744;52.404;16.942;2023-02-14T02:03:34;12.20;;;6.27;;
55815;SDS011;41744;52.404;16.942;2023-02-14T02:08:34;12.43;;;5.73;;
55815;SDS011;41744;52.404;16.942;2023-02-14T02:11:01;12.93;;;6.20;;
55815;SDS011;41744;52.404;16.942;2023-02-14T02:13:28;14.17;;;5.90;;
55815;SDS011;41744;52.404;16.942;2023-02-14T02:15:59;16.33;;;7.07;;
55815;SDS011;41744;52.404;16.942;2023-02-14T02:23:37;13.83;;;6.00;;
55815;SDS011;41744;52.404;16.942;2023-02-14T02:39:21;16.53;;;6.47;;
55815;SDS011;41744;52.404;16.942;2023-02-14T02:44:38;14.73;;;5.90;;
55815;SDS011;41744;52.404;16.942;2023-02-14T02:47:08;13.80;;;6.27;;
55815;SDS011;41744;52.404;16.942;2023-02-14T02:55:36;16.30;;;6.70;;
55815;SDS011;41744;52.404;16.942;2023-02-14T02:58:23;12.30;;;5.80;;
55815;SDS011;41744;52.404;16.942;2023-02-14T03:00:50;14.23;;;6.10;;
55815;SDS011;41744;52.404;16.942;2023-02-14T03:03:18;16.63;;;6.03;;
55815;SDS011;41744;52.404;16.942;2023-02-14T03:06:05;11.97;;;5.60;;
55815;SDS011;41744;52.404;16.942;2023-02-14T03:08:31;12.43;;;5.70;;
55815;SDS011;41744;52.404;16.942;2023-02-14T03:10:57;13.50;;;5.87;;
55815;SDS011;41744;52.404;16.942;2023-02-14T03:29:04;10.63;;;5.63;;
55815;SDS011;41744;52.404;16.942;2023-02-14T03:31:34;14.77;;;6.17;;
55815;SDS011;41744;52.404;16.942;2023-02-14T03:34:24;13.37;;;6.00;;
55815;SDS011;41744;52.404;16.942;2023-02-14T03:36:54;11.30;;;5.27;;
55815;SDS011;41744;52.404;16.942;2023-02-14T03:39:25;12.97;;;5.47;;
55815;SDS011;41744;52.404;16.942;2023-02-14T03:41:55;16.97;;;6.27;;
55815;SDS011;41744;52.404;16.942;2023-02-14T03:44:28;13.10;;;5.93;;
55815;SDS011;41744;52.404;16.942;2023-02-14T03:47:00;14.33;;;5.90;;
55815;SDS011;41744;52.404;16.942;2023-02-14T03:49:29;15.30;;;6.33;;
55815;SDS011;41744;52.404;16.942;2023-02-14T03:51:57;13.97;;;6.30;;
55815;SDS011;41744;52.404;16.942;2023-02-14T03:54:25;15.07;;;5.90;;
55815;SDS011;41744;52.404;16.942;2023-02-14T03:56:55;12.13;;;5.90;;
55815;SDS011;41744;52.404;16.942;2023-02-14T03:59:23;10.97;;;5.63;;
55815;SDS011;41744;52.404;16.942;2023-02-14T04:04:19;13.97;;;6.27;;
55815;SDS011;41744;52.404;16.942;2023-02-14T04:06:45;12.10;;;6.17;;
55815;SDS011;41744;52.404;16.942;2023-02-14T04:09:11;14.23;;;5.87;;
55815;SDS011;41744;52.404;16.942;2023-02-14T04:11:37;15.57;;;6.10;;
55815;SDS011;41744;52.404;16.942;2023-02-14T04:14:04;16.60;;;6.50;;
55815;SDS011;41744;52.404;16.942;2023-02-14T04:16:30;14.77;;;5.80;;
55815;SDS011;41744;52.404;16.942;2023-02-14T04:19:17;14.33;;;5.80;;
55815;SDS011;41744;52.404;16.942;2023-02-14T04:21:49;15.93;;;5.60;;
55815;SDS011;41744;52.404;16.942;2023-02-14T04:24:16;16.70;;;6.60;;
55815;SDS011;41744;52.404;16.942;2023-02-14T04:26:42;14.63;;;6.30;;
55815;SDS011;41744;52.404;16.942;2023-02-14T04:29:18;14.40;;;5.97;;
55815;SDS011;41744;52.404;16.942;2023-02-14T04:31:45;15.83;;;5.60;;
55815;SDS011;41744;52.404;16.942;2023-02-14T04:34:11;18.37;;;6.77;;
55815;SDS011;41744;52.404;16.942;2023-02-14T04:36:37;13.10;;;5.93;;
55815;SDS011;41744;52.404;16.942;2023-02-14T04:39:04;17.90;;;6.57;;
55815;SDS011;41744;52.404;16.942;2023-02-14T04:41:30;15.80;;;6.67;;
55815;SDS011;41744;52.404;16.942;2023-02-14T04:43:56;17.27;;;6.47;;
55815;SDS011;41744;52.404;16.942;2023-02-14T04:46:22;14.03;;;6.47;;
55815;SDS011;41744;52.404;16.942;2023-02-14T04:48:48;14.83;;;5.77;;
55815;SDS011;41744;52.404;16.942;2023-02-14T04:51:14;14.27;;;5.77;;
55815;SDS011;41744;52.404;16.942;2023-02-14T04:53:40;14.17;;;5.87;;
55815;SDS011;41744;52.404;16.942;2023-02-14T04:56:07;14.77;;;6.33;;
55815;SDS011;41744;52.404;16.942;2023-02-14T04:58:33;14.67;;;5.53;;
55815;SDS011;41744;52.404;16.942;2023-02-14T05:00:59;13.83;;;5.77;;
55815;SDS011;41744;52.404;16.942;2023-02-14T05:03:25;13.70;;;5.87;;
55815;SDS011;41744;52.404;16.942;2023-02-14T05:05:51;15.03;;;6.20;;
55815;SDS011;41744;52.404;16.942;2023-02-14T05:08:17;12.30;;;6.00;;
55815;SDS011;41744;52.404;16.942;2023-02-14T05:10:43;14.43;;;6.33;;
55815;SDS011;41744;52.404;16.942;2023-02-14T05:13:09;13.70;;;5.50;;
55815;SDS011;41744;52.404;16.942;2023-02-14T05:15:35;14.57;;;6.20;;
55815;SDS011;41744;52.404;16.942;2023-02-14T05:18:02;17.53;;;6.63;;
55815;SDS011;41744;52.404;16.942;2023-02-14T05:20:29;14.93;;;6.27;;
55815;SDS011;41744;52.404;16.942;2023-02-14T05:22:56;14.30;;;5.90;;
55815;SDS011;41744;52.404;16.942;2023-02-14T05:25:27;15.73;;;6.37;;
55815;SDS011;41744;52.404;16.942;2023-02-14T05:27:54;12.97;;;5.87;;
55815;SDS011;41744;52.404;16.942;2023-02-14T05:30:20;14.23;;;5.67;;
55815;SDS011;41744;52.404;16.942;2023-02-14T05:32:50;14.27;;;5.60;;
55815;SDS011;41744;52.404;16.942;2023-02-14T05:35:16;15.63;;;5.97;;
55815;SDS011;41744;52.404;16.942;2023-02-14T05:37:42;13.47;;;5.90;;
55815;SDS011;41744;52.404;16.942;2023-02-14T05:40:09;15.50;;;5.60;;
55815;SDS011;41744;52.404;16.942;2023-02-14T05:42:37;14.80;;;5.90;;
55815;SDS011;41744;52.404;16.942;2023-02-14T05:45:04;10.43;;;5.30;;
55815;SDS011;41744;52.404;16.942;2023-02-14T05:47:30;12.07;;;5.87;;
55815;SDS011;41744;52.404;16.942;2023-02-14T05:49:56;14.23;;;5.77;;
55815;SDS011;41744;52.404;16.942;2023-02-14T05:52:22;12.60;;;5.43;;
55815;SDS011;41744;52.404;16.942;2023-02-14T05:54:48;13.70;;;6.13;;
55815;SDS011;41744;52.404;16.942;2023-02-14T05:57:15;14.13;;;5.43;;
55815;SDS011;41744;52.404;16.942;2023-02-14T05:59:41;13.77;;;5.27;;
55815;SDS011;41744;52.404;16.942;2023-02-14T06:02:07;13.13;;;5.77;;
55815;SDS011;41744;52.404;16.942;2023-02-14T06:04:33;13.07;;;5.37;;
55815;SDS011;41744;52.404;16.942;2023-02-14T06:06:59;12.50;;;5.77;;
55815;SDS011;41744;52.404;16.942;2023-02-14T06:09:25;14.03;;;5.43;;
55815;SDS011;41744;52.404;16.942;2023-02-14T06:11:51;12.27;;;5.63;;
55815;SDS011;41744;52.404;16.942;2023-02-14T06:14:17;13.50;;;6.40;;
55815;SDS011;41744;52.404;16.942;2023-02-14T06:16:43;14.60;;;6.33;;
55815;SDS011;41744;52.404;16.942;2023-02-14T06:19:09;14.87;;;6.60;;
55815;SDS011;41744;52.404;16.942;2023-02-14T06:21:35;14.43;;;6.73;;
55815;SDS011;41744;52.404;16.942;2023-02-14T06:24:02;12.53;;;6.07;;
55815;SDS011;41744;52.404;16.942;2023-02-14T06:26:28;15.97;;;6.33;;
55815;SDS011;41744;52.404;16.942;2023-02-14T06:28:54;14.20;;;6.13;;
55815;SDS011;41744;52.404;16.942;2023-02-14T06:31:21;14.70;;;5.90;;
55815;SDS011;41744;52.404;16.942;2023-02-14T06:33:47;16.23;;;5.97;;
55815;SDS011;41744;52.404;16.942;2023-02-14T06:36:13;13.57;;;5.90;;
55815;SDS011;41744;52.404;16.942;2023-02-14T06:38:39;17.63;;;6.67;;
55815;SDS011;41744;52.404;16.942;2023-02-14T06:41:06;19.23;;;7.23;;
55815;SDS011;41744;52.404;16.942;2023-02-14T06:43:32;15.27;;;6.03;;
55815;SDS011;41744;52.404;16.942;2023-02-14T06:45:59;18.07;;;6.23;;
55815;SDS011;41744;52.404;16.942;2023-02-14T06:48:25;14.53;;;6.60;;
55815;SDS011;41744;52.404;16.942;2023-02-14T06:50:51;14.23;;;5.93;;
55815;SDS011;41744;52.404;16.942;2023-02-14T06:53:17;15.93;;;5.97;;
55815;SDS011;41744;52.404;16.942;2023-02-14T06:55:43;14.67;;;6.50;;
55815;SDS011;41744;52.404;16.942;2023-02-14T06:58:10;13.30;;;6.50;;
55815;SDS011;41744;52.404;16.942;2023-02-14T07:00:36;12.50;;;6.33;;
55815;SDS011;41744;52.404;16.942;2023-02-14T07:03:04;17.90;;;6.33;;
55815;SDS011;41744;52.404;16.942;2023-02-14T07:05:30;16.20;;;6.93;;
55815;SDS011;41744;52.404;16.942;2023-02-14T07:07:56;26.73;;;9.73;;
55815;SDS011;41744;52.404;16.942;2023-02-14T07:10:23;25.87;;;8.93;;
55815;SDS011;41744;52.404;16.942;2023-02-14T07:12:49;21.83;;;7.47;;
55815;SDS011;41744;52.404;16.942;2023-02-14T07:15:15;25.77;;;7.90;;
55815;SDS011;41744;52.404;16.942;2023-02-14T07:17:41;22.53;;;8.53;;
55815;SDS011;41744;52.404;16.942;2023-02-14T07:20:09;26.03;;;9.40;;
55815;SDS011;41744;52.404;16.942;2023-02-14T07:22:35;25.50;;;9.07;;
55815;SDS011;41744;52.404;16.942;2023-02-14T07:25:01;20.53;;;8.77;;
55815;SDS011;41744;52.404;16.942;2023-02-14T07:27:28;22.07;;;8.77;;
55815;SDS011;41744;52.404;16.942;2023-02-14T07:29:54;14.80;;;7.30;;
55815;SDS011;41744;52.404;16.942;2023-02-14T07:32:20;16.40;;;7.20;;
55815;SDS011;41744;52.404;16.942;2023-02-14T07:34:47;16.43;;;6.60;;
55815;SDS011;41744;52.404;16.942;2023-02-14T07:37:13;13.70;;;6.73;;
55815;SDS011;41744;52.404;16.942;2023-02-14T07:39:41;14.37;;;6.90;;
55815;SDS011;41744;52.404;16.942;2023-02-14T07:42:07;11.70;;;5.40;;
55815;SDS011;41744;52.404;16.942;2023-02-14T07:44:35;12.33;;;5.67;;
55815;SDS011;41744;52.404;16.942;2023-02-14T07:47:03;11.23;;;5.63;;
55815;SDS011;41744;52.404;16.942;2023-02-14T07:49:29;13.90;;;5.53;;
55815;SDS011;41744;52.404;16.942;2023-02-14T07:51:55;16.23;;;5.87;;
55815;SDS011;41744;52.404;16.942;2023-02-14T07:54:21;17.97;;;5.63;;
55815;SDS011;41744;52.404;16.942;2023-02-14T07:56:47;11.23;;;5.07;;
55815;SDS011;41744;52.404;16.942;2023-02-14T07:59:13;14.60;;;5.97;;
55815;SDS011;41744;52.404;16.942;2023-02-14T08:01:40;13.13;;;6.37;;
55815;SDS011;41744;52.404;16.942;2023-02-14T08:04:06;14.93;;;6.10;;
55815;SDS011;41744;52.404;16.942;2023-02-14T08:06:32;14.50;;;6.20;;
55815;SDS011;41744;52.404;16.942;2023-02-14T08:08:58;13.57;;;5.43;;
55815;SDS011;41744;52.404;16.942;2023-02-14T08:11:24;13.20;;;5.60;;
55815;SDS011;41744;52.404;16.942;2023-02-14T08:14:09;10.03;;;5.27;;
55815;SDS011;41744;52.404;16.942;2023-02-14T08:16:36;12.90;;;5.57;;
55815;SDS011;41744;52.404;16.942;2023-02-14T08:19:03;13.60;;;5.60;;
55815;SDS011;41744;52.404;16.942;2023-02-14T08:21:29;15.50;;;5.40;;
55815;SDS011;41744;52.404;16.942;2023-02-14T08:23:55;13.43;;;5.40;;
55815;SDS011;41744;52.404;16.942;2023-02-14T08:26:21;12.17;;;5.20;;
55815;SDS011;41744;52.404;16.942;2023-02-14T08:28:47;11.27;;;5.13;;
55815;SDS011;41744;52.404;16.942;2023-02-14T08:31:20;11.30;;;4.80;;
55815;SDS011;41744;52.404;16.942;2023-02-14T08:33:47;13.83;;;5.47;;
55815;SDS011;41744;52.404;16.942;2023-02-14T08:36:13;11.83;;;4.97;;
55815;SDS011;41744;52.404;16.942;2023-02-14T08:38:41;13.67;;;5.53;;
55815;SDS011;41744;52.404;16.942;2023-02-14T08:41:09;14.47;;;4.70;;
55815;SDS011;41744;52.404;16.942;2023-02-14T08:43:35;15.03;;;5.03;;
55815;SDS011;41744;52.404;16.942;2023-02-14T08:46:01;13.80;;;5.20;;
55815;SDS011;41744;52.404;16.942;2023-02-14T08:48:27;13.27;;;4.93;;
55815;SDS011;41744;52.404;16.942;2023-02-14T08:50:53;10.00;;;4.60;;
55815;SDS011;41744;52.404;16.942;2023-02-14T08:53:19;13.23;;;5.53;;
55815;SDS011;41744;52.404;16.942;2023-02-14T08:55:46;15.70;;;4.60;;
55815;SDS011;41744;52.404;16.942;2023-02-14T08:58:13;10.57;;;4.40;;
55815;SDS011;41744;52.404;16.942;2023-02-14T09:00:39;10.00;;;4.60;;
55815;SDS011;41744;52.404;16.942;2023-02-14T09:03:05;13.37;;;4.77;;
55815;SDS011;41744;52.404;16.942;2023-02-14T09:05:32;8.17;;;4.50;;
55815;SDS011;41744;52.404;16.942;2023-02-14T09:07:58;11.53;;;4.63;;
55815;SDS011;41744;52.404;16.942;2023-02-14T09:10:24;9.37;;;4.60;;
55815;SDS011;41744;52.404;16.942;2023-02-14T09:12:50;10.13;;;4.47;;
55815;SDS011;41744;52.404;16.942;2023-02-14T09:15:17;10.03;;;4.20;;
55815;SDS011;41744;52.404;16.942;2023-02-14T09:17:43;10.53;;;4.30;;
55815;SDS011;41744;52.404;16.942;2023-02-14T09:20:10;12.00;;;4.67;;
55815;SDS011;41744;52.404;16.942;2023-02-14T09:22:36;13.70;;;4.57;;
55815;SDS011;41744;52.404;16.942;2023-02-14T09:25:03;13.23;;;4.93;;
55815;SDS011;41744;52.404;16.942;2023-02-14T09:27:29;12.90;;;4.53;;
55815;SDS011;41744;52.404;16.942;2023-02-14T09:29:55;15.30;;;4.93;;
55815;SDS011;41744;52.404;16.942;2023-02-14T09:32:21;10.93;;;4.57;;
55815;SDS011;41744;52.404;16.942;2023-02-14T09:34:47;9.93;;;4.87;;
55815;SDS011;41744;52.404;16.942;2023-02-14T09:37:13;13.50;;;5.13;;
55815;SDS011;41744;52.404;16.942;2023-02-14T09:39:39;16.03;;;5.53;;
55815;SDS011;41744;52.404;16.942;2023-02-14T09:42:20;11.73;;;4.73;;
55815;SDS011;41744;52.404;16.942;2023-02-14T09:44:52;7.67;;;3.80;;
55815;SDS011;41744;52.404;16.942;2023-02-14T09:49:49;9.73;;;3.27;;
55815;SDS011;41744;52.404;16.942;2023-02-14T09:52:17;5.37;;;2.53;;
55815;SDS011;41744;52.404;16.942;2023-02-14T09:54:45;6.77;;;2.77;;
55815;SDS011;41744;52.404;16.942;2023-02-14T09:57:17;6.63;;;2.43;;
55815;SDS011;41744;52.404;16.942;2023-02-14T10:07:20;6.17;;;2.30;;
55815;SDS011;41744;52.404;16.942;2023-02-14T10:10:09;12.00;;;2.53;;
55815;SDS011;41744;52.404;16.942;2023-02-14T10:12:39;5.97;;;2.80;;
55815;SDS011;41744;52.404;16.942;2023-02-14T10:15:10;6.20;;;3.10;;
55815;SDS011;41744;52.404;16.942;2023-02-14T10:17:41;6.93;;;2.60;;
55815;SDS011;41744;52.404;16.942;2023-02-14T10:20:55;10.30;;;3.03;;
55815;SDS011;41744;52.404;16.942;2023-02-14T10:22:58;6.60;;;2.70;;
55815;SDS011;41744;52.404;16.942;2023-02-14T10:25:44;8.87;;;2.70;;
55815;SDS011;41744;52.404;16.942;2023-02-14T10:28:12;9.10;;;2.47;;
55815;SDS011;41744;52.404;16.942;2023-02-14T10:30:39;9.37;;;2.27;;
55815;SDS011;41744;52.404;16.942;2023-02-14T10:33:15;7.73;;;2.40;;
55815;SDS011;41744;52.404;16.942;2023-02-14T10:35:49;5.67;;;2.27;;
55815;SDS011;41744;52.404;16.942;2023-02-14T10:38:20;4.60;;;1.83;;
55815;SDS011;41744;52.404;16.942;2023-02-14T10:46:10;9.00;;;2.43;;
55815;SDS011;41744;52.404;16.942;2023-02-14T10:51:18;6.97;;;2.57;;
55815;SDS011;41744;52.404;16.942;2023-02-14T10:56:39;4.93;;;2.20;;
55815;SDS011;41744;52.404;16.942;2023-02-14T10:59:10;9.13;;;2.20;;
55815;SDS011;41744;52.404;16.942;2023-02-14T11:01:40;5.57;;;2.57;;
55815;SDS011;41744;52.404;16.942;2023-02-14T11:04:06;6.83;;;2.60;;
55815;SDS011;41744;52.404;16.942;2023-02-14T11:06:35;7.10;;;2.27;;
55815;SDS011;41744;52.404;16.942;2023-02-14T11:09:01;9.57;;;2.03;;
55815;SDS011;41744;52.404;16.942;2023-02-14T11:14:23;7.33;;;2.40;;
55815;SDS011;41744;52.404;16.942;2023-02-14T11:16:50;7.70;;;2.60;;
55815;SDS011;41744;52.404;16.942;2023-02-14T11:19:32;7.37;;;2.43;;
55815;SDS011;41744;52.404;16.942;2023-02-14T11:21:59;4.17;;;2.23;;
55815;SDS011;41744;52.404;16.942;2023-02-14T11:26:54;5.97;;;2.13;;
55815;SDS011;41744;52.404;16.942;2023-02-14T11:29:25;8.17;;;2.50;;
55815;SDS011;41744;52.404;16.942;2023-02-14T11:31:51;6.93;;;2.47;;
55815;SDS011;41744;52.404;16.942;2023-02-14T11:34:35;4.20;;;2.27;;
55815;SDS011;41744;52.404;16.942;2023-02-14T11:37:05;6.53;;;2.30;;
55815;SDS011;41744;52.404;16.942;2023-02-14T11:39:41;5.00;;;2.10;;
55815;SDS011;41744;52.404;16.942;2023-02-14T11:42:08;4.37;;;1.83;;
55815;SDS011;41744;52.404;16.942;2023-02-14T11:44:36;11.37;;;2.87;;
55815;SDS011;41744;52.404;16.942;2023-02-14T11:47:27;11.07;;;2.67;;
55815;SDS011;41744;52.404;16.942;2023-02-14T11:49:54;11.10;;;3.00;;
55815;SDS011;41744;52.404;16.942;2023-02-14T11:52:21;5.37;;;2.73;;
55815;SDS011;41744;52.404;16.942;2023-02-14T11:54:50;11.60;;;2.73;;
55815;SDS011;41744;52.404;16.942;2023-02-14T11:57:33;8.02;;;3.15;;
55815;SDS011;41744;52.404;16.942;2023-02-14T12:00:00;7.83;;;3.10;;
55815;SDS011;41744;52.404;16.942;2023-02-14T12:04:59;5.97;;;3.07;;
55815;SDS011;41744;52.404;16.942;2023-02-14T12:07:27;8.40;;;2.93;;
55815;SDS011;41744;52.404;16.942;2023-02-14T12:12:35;11.20;;;3.80;;
55815;SDS011;41744;52.404;16.942;2023-02-14T12:17:53;8.10;;;4.33;;
55815;SDS011;41744;52.404;16.942;2023-02-14T12:23:35;8.40;;;4.00;;
55815;SDS011;41744;52.404;16.942;2023-02-14T12:26:09;15.67;;;5.07;;
55815;SDS011;41744;52.404;16.942;2023-02-14T12:28:39;12.47;;;5.00;;
55815;SDS011;41744;52.404;16.942;2023-02-14T12:31:09;25.90;;;5.67;;
55815;SDS011;41744;52.404;16.942;2023-02-14T12:33:35;13.30;;;4.10;;
55815;SDS011;41744;52.404;16.942;2023-02-14T12:43:46;12.93;;;4.30;;
55815;SDS011;41744;52.404;16.942;2023-02-14T12:58:45;11.07;;;4.53;;
55815;SDS011;41744;52.404;16.942;2023-02-14T13:11:46;12.97;;;5.57;;
55815;SDS011;41744;52.404;16.942;2023-02-14T13:14:23;11.07;;;4.45;;
55815;SDS011;41744;52.404;16.942;2023-02-14T13:16:54;11.10;;;4.10;;
55815;SDS011;41744;52.404;16.942;2023-02-14T13:21:56;10.97;;;3.97;;
55815;SDS011;41744;52.404;16.942;2023-02-14T13:24:24;14.50;;;3.90;;
55815;SDS011;41744;52.404;16.942;2023-02-14T13:26:51;8.52;;;3.72;;
55815;SDS011;41744;52.404;16.942;2023-02-14T13:29:20;9.25;;;3.95;;
55815;SDS011;41744;52.404;16.942;2023-02-14T13:31:47;8.33;;;3.40;;
55815;SDS011;41744;52.404;16.942;2023-02-14T13:36:43;9.80;;;3.67;;
55815;SDS011;41744;52.404;16.942;2023-02-14T13:39:11;9.30;;;3.58;;
55815;SDS011;41744;52.404;16.942;2023-02-14T13:41:44;8.27;;;3.60;;
55815;SDS011;41744;52.404;16.942;2023-02-14T13:44:10;12.82;;;5.57;;
55815;SDS011;41744;52.404;16.942;2023-02-14T13:46:56;7.90;;;3.50;;
55815;SDS011;41744;52.404;16.942;2023-02-14T13:51:52;6.67;;;3.40;;
55815;SDS011;41744;52.404;16.942;2023-02-14T13:54:41;10.47;;;3.80;;
55815;SDS011;41744;52.404;16.942;2023-02-14T14:02:40;10.47;;;4.47;;
55815;SDS011;41744;52.404;16.942;2023-02-14T14:10:44;16.20;;;5.77;;
55815;SDS011;41744;52.404;16.942;2023-02-14T14:13:52;14.10;;;6.10;;
55815;SDS011;41744;52.404;16.942;2023-02-14T14:18:41;12.83;;;4.90;;
55815;SDS011;41744;52.404;16.942;2023-02-14T14:21:14;10.97;;;4.30;;
55815;SDS011;41744;52.404;16.942;2023-02-14T14:23:41;12.13;;;3.90;;
55815;SDS011;41744;52.404;16.942;2023-02-14T14:28:52;16.57;;;5.63;;
55815;SDS011;41744;52.404;16.942;2023-02-14T14:31:19;10.20;;;5.20;;
55815;SDS011;41744;52.404;16.942;2023-02-14T14:33:45;9.73;;;5.40;;
55815;SDS011;41744;52.404;16.942;2023-02-14T14:36:20;12.20;;;5.37;;
55815;SDS011;41744;52.404;16.942;2023-02-14T14:38:50;9.07;;;4.90;;
55815;SDS011;41744;52.404;16.942;2023-02-14T14:41:17;9.97;;;4.67;;
55815;SDS011;41744;52.404;16.942;2023-02-14T14:43:43;13.87;;;4.43;;
55815;SDS011;41744;52.404;16.942;2023-02-14T14:46:10;13.33;;;4.07;;
55815;SDS011;41744;52.404;16.942;2023-02-14T14:51:04;7.67;;;4.03;;
55815;SDS011;41744;52.404;16.942;2023-02-14T14:53:34;11.50;;;4.47;;
55815;SDS011;41744;52.404;16.942;2023-02-14T14:56:01;8.83;;;3.80;;
55815;SDS011;41744;52.404;16.942;2023-02-14T15:00:57;8.43;;;4.53;;
55815;SDS011;41744;52.404;16.942;2023-02-14T15:03:24;9.53;;;4.10;;
55815;SDS011;41744;52.404;16.942;2023-02-14T15:05:50;14.20;;;4.37;;
55815;SDS011;41744;52.404;16.942;2023-02-14T15:08:27;11.83;;;4.00;;
55815;SDS011;41744;52.404;16.942;2023-02-14T15:13:27;5.47;;;3.70;;
55815;SDS011;41744;52.404;16.942;2023-02-14T15:16:17;10.83;;;4.37;;
55815;SDS011;41744;52.404;16.942;2023-02-14T15:18:43;11.37;;;4.60;;
55815;SDS011;41744;52.404;16.942;2023-02-14T15:21:10;13.53;;;5.00;;
55815;SDS011;41744;52.404;16.942;2023-02-14T15:23:36;9.83;;;4.07;;
55815;SDS011;41744;52.404;16.942;2023-02-14T15:26:02;10.50;;;4.60;;
55815;SDS011;41744;52.404;16.942;2023-02-14T15:28:29;9.70;;;3.70;;
55815;SDS011;41744;52.404;16.942;2023-02-14T15:31:00;12.40;;;4.30;;
55815;SDS011;41744;52.404;16.942;2023-02-14T15:33:27;7.10;;;4.23;;
55815;SDS011;41744;52.404;16.942;2023-02-14T15:35:53;11.93;;;4.87;;
55815;SDS011;41744;52.404;16.942;2023-02-14T15:38:20;13.43;;;5.33;;
55815;SDS011;41744;52.404;16.942;2023-02-14T15:40:47;11.70;;;4.47;;
55815;SDS011;41744;52.404;16.942;2023-02-14T15:43:18;10.77;;;4.90;;
55815;SDS011;41744;52.404;16.942;2023-02-14T15:45:46;13.40;;;5.50;;
55815;SDS011;41744;52.404;16.942;2023-02-14T15:48:14;11.60;;;5.27;;
55815;SDS011;41744;52.404;16.942;2023-02-14T15:50:43;18.73;;;5.67;;
55815;SDS011;41744;52.404;16.942;2023-02-14T15:56:01;14.07;;;5.43;;
55815;SDS011;41744;52.404;16.942;2023-02-14T15:58:28;12.47;;;5.40;;
55815;SDS011;41744;52.404;16.942;2023-02-14T16:00:56;20.77;;;7.87;;
55815;SDS011;41744;52.404;16.942;2023-02-14T16:03:24;18.43;;;6.27;;
55815;SDS011;41744;52.404;16.942;2023-02-14T16:05:51;16.63;;;5.90;;
55815;SDS011;41744;52.404;16.942;2023-02-14T16:11:04;14.23;;;6.30;;
55815;SDS011;41744;52.404;16.942;2023-02-14T16:13:38;14.07;;;6.00;;
55815;SDS011;41744;52.404;16.942;2023-02-14T16:16:07;15.20;;;6.57;;
55815;SDS011;41744;52.404;16.942;2023-02-14T16:18:38;13.63;;;6.07;;
55815;SDS011;41744;52.404;16.942;2023-02-14T16:21:15;14.77;;;6.30;;
55815;SDS011;41744;52.404;16.942;2023-02-14T16:23:42;13.43;;;5.73;;
55815;SDS011;41744;52.404;16.942;2023-02-14T16:26:08;13.80;;;6.23;;
55815;SDS011;41744;52.404;16.942;2023-02-14T16:28:35;18.60;;;6.60;;
55815;SDS011;41744;52.404;16.942;2023-02-14T16:31:02;14.63;;;6.90;;
55815;SDS011;41744;52.404;16.942;2023-02-14T16:33:33;14.97;;;7.70;;
55815;SDS011;41744;52.404;16.942;2023-02-14T16:36:02;16.23;;;6.80;;
55815;SDS011;41744;52.404;16.942;2023-02-14T16:38:30;14.33;;;6.93;;
55815;SDS011;41744;52.404;16.942;2023-02-14T16:40:57;18.90;;;7.77;;
55815;SDS011;41744;52.404;16.942;2023-02-14T16:43:24;15.10;;;7.30;;
55815;SDS011;41744;52.404;16.942;2023-02-14T16:45:58;14.30;;;7.13;;
55815;SDS011;41744;52.404;16.942;2023-02-14T16:48:24;14.23;;;7.50;;
55815;SDS011;41744;52.404;16.942;2023-02-14T16:50:50;16.47;;;7.60;;
55815;SDS011;41744;52.404;16.942;2023-02-14T16:53:21;19.67;;;7.73;;
55815;SDS011;41744;52.404;16.942;2023-02-14T16:55:49;15.30;;;7.27;;
55815;SDS011;41744;52.404;16.942;2023-02-14T16:58:16;19.47;;;7.70;;
55815;SDS011;41744;52.404;16.942;2023-02-14T17:00:43;16.53;;;7.70;;
55815;SDS011;41744;52.404;16.942;2023-02-14T17:03:09;17.67;;;8.53;;
55815;SDS011;41744;52.404;16.942;2023-02-14T17:05:36;16.77;;;7.77;;